sensor_id;sensor_type;location;lat;lon;timestamp;P1;durP1;ratioP1;P2;durP2;ratioP2
72156;SDS011;60035;52.122;5.406;2023-02-22T00:00:41;30.67;;;11.60;;
72156;SDS011;60035;52.122;5.406;2023-02-22T00:05:42;30.02;;;11.07;;
72156;SDS011;60035;52.122;5.406;2023-02-22T00:08:13;32.88;;;11.02;;
72156;SDS011;60035;52.122;5.406;2023-02-22T00:10:40;27.75;;;9.88;;
72156;SDS011;60035;52.122;5.406;2023-02-22T00:13:07;29.02;;;10.55;;
72156;SDS011;60035;52.122;5.406;2023-02-22T00:15:36;31.02;;;10.95;;
72156;SDS011;60035;52.122;5.406;2023-02-22T00:18:02;30.05;;;11.38;;
72156;SDS011;60035;52.122;5.406;2023-02-22T00:20:30;32.22;;;10.80;;
72156;SDS011;60035;52.122;5.406;2023-02-22T00:22:56;28.90;;;10.60;;
72156;SDS011;60035;52.122;5.406;2023-02-22T00:25:23;28.27;;;11.18;;
72156;SDS011;60035;52.122;5.406;2023-02-22T00:27:50;29.98;;;11.32;;
72156;SDS011;60035;52.122;5.406;2023-02-22T00:30:19;29.85;;;10.40;;
72156;SDS011;60035;52.122;5.406;2023-02-22T00:32:53;26.17;;;9.93;;
72156;SDS011;60035;52.122;5.406;2023-02-22T00:35:22;27.88;;;11.38;;
72156;SDS011;60035;52.122;5.406;2023-02-22T00:37:51;28.88;;;10.88;;
72156;SDS011;60035;52.122;5.406;2023-02-22T00:40:22;27.65;;;10.07;;
72156;SDS011;60035;52.122;5.406;2023-02-22T00:42:50;26.00;;;10.50;;
72156;SDS011;60035;52.122;5.406;2023-02-22T00:45:19;26.80;;;9.60;;
72156;SDS011;60035;52.122;5.406;2023-02-22T00:47:47;26.63;;;10.38;;
72156;SDS011;60035;52.122;5.406;2023-02-22T00:50:15;26.90;;;10.13;;
72156;SDS011;60035;52.122;5.406;2023-02-22T00:52:43;27.13;;;10.05;;
72156;SDS011;60035;52.122;5.406;2023-02-22T00:55:15;28.50;;;10.30;;
72156;SDS011;60035;52.122;5.406;2023-02-22T00:57:47;30.45;;;11.10;;
72156;SDS011;60035;52.122;5.406;2023-02-22T01:00:16;25.83;;;8.90;;
72156;SDS011;60035;52.122;5.406;2023-02-22T01:02:51;26.23;;;9.50;;
72156;SDS011;60035;52.122;5.406;2023-02-22T01:05:19;24.00;;;8.40;;
72156;SDS011;60035;52.122;5.406;2023-02-22T01:07:48;27.20;;;9.70;;
72156;SDS011;60035;52.122;5.406;2023-02-22T01:10:16;29.08;;;10.77;;
72156;SDS011;60035;52.122;5.406;2023-02-22T01:12:45;27.35;;;10.30;;
72156;SDS011;60035;52.122;5.406;2023-02-22T01:15:13;25.48;;;9.18;;
72156;SDS011;60035;52.122;5.406;2023-02-22T01:17:40;27.35;;;10.07;;
72156;SDS011;60035;52.122;5.406;2023-02-22T01:20:10;25.50;;;8.07;;
72156;SDS011;60035;52.122;5.406;2023-02-22T01:22:38;27.40;;;10.40;;
72156;SDS011;60035;52.122;5.406;2023-02-22T01:25:06;25.65;;;10.30;;
72156;SDS011;60035;52.122;5.406;2023-02-22T01:27:33;25.02;;;9.50;;
72156;SDS011;60035;52.122;5.406;2023-02-22T01:30:00;24.48;;;9.00;;
72156;SDS011;60035;52.122;5.406;2023-02-22T01:32:34;26.77;;;9.45;;
72156;SDS011;60035;52.122;5.406;2023-02-22T01:35:02;25.02;;;9.40;;
72156;SDS011;60035;52.122;5.406;2023-02-22T01:37:30;29.27;;;10.20;;
72156;SDS011;60035;52.122;5.406;2023-02-22T01:39:57;25.92;;;9.30;;
72156;SDS011;60035;52.122;5.406;2023-02-22T01:42:24;23.52;;;9.40;;
72156;SDS011;60035;52.122;5.406;2023-02-22T01:48:08;26.45;;;10.15;;
72156;SDS011;60035;52.122;5.406;2023-02-22T01:50:58;23.13;;;9.52;;
72156;SDS011;60035;52.122;5.406;2023-02-22T01:53:24;25.42;;;10.05;;
72156;SDS011;60035;52.122;5.406;2023-02-22T01:55:55;23.58;;;9.30;;
72156;SDS011;60035;52.122;5.406;2023-02-22T01:58:23;27.23;;;10.27;;
72156;SDS011;60035;52.122;5.406;2023-02-22T02:00:53;27.92;;;10.00;;
72156;SDS011;60035;52.122;5.406;2023-02-22T02:03:21;27.48;;;10.13;;
72156;SDS011;60035;52.122;5.406;2023-02-22T02:05:53;28.48;;;9.60;;
72156;SDS011;60035;52.122;5.406;2023-02-22T02:08:30;25.75;;;9.35;;
72156;SDS011;60035;52.122;5.406;2023-02-22T02:11:03;29.25;;;10.68;;
72156;SDS011;60035;52.122;5.406;2023-02-22T02:13:34;29.88;;;10.93;;
72156;SDS011;60035;52.122;5.406;2023-02-22T02:16:01;31.90;;;11.60;;
72156;SDS011;60035;52.122;5.406;2023-02-22T02:18:27;31.30;;;11.10;;
72156;SDS011;60035;52.122;5.406;2023-02-22T02:37:22;30.40;;;11.27;;
72156;SDS011;60035;52.122;5.406;2023-02-22T02:40:11;30.50;;;11.45;;
72156;SDS011;60035;52.122;5.406;2023-02-22T02:42:46;27.40;;;9.93;;
72156;SDS011;60035;52.122;5.406;2023-02-22T02:45:25;29.85;;;11.65;;
72156;SDS011;60035;52.122;5.406;2023-02-22T02:47:57;30.85;;;11.70;;
72156;SDS011;60035;52.122;5.406;2023-02-22T02:50:29;31.58;;;11.98;;
72156;SDS011;60035;52.122;5.406;2023-02-22T02:53:03;32.42;;;12.38;;
72156;SDS011;60035;52.122;5.406;2023-02-22T02:55:33;33.78;;;12.02;;
72156;SDS011;60035;52.122;5.406;2023-02-22T02:58:03;31.23;;;10.93;;
72156;SDS011;60035;52.122;5.406;2023-02-22T03:00:32;36.72;;;13.00;;
72156;SDS011;60035;52.122;5.406;2023-02-22T03:03:09;32.78;;;11.55;;
72156;SDS011;60035;52.122;5.406;2023-02-22T03:11:59;31.88;;;10.75;;
72156;SDS011;60035;52.122;5.406;2023-02-22T03:14:39;33.92;;;11.63;;
72156;SDS011;60035;52.122;5.406;2023-02-22T03:17:15;37.03;;;13.18;;
72156;SDS011;60035;52.122;5.406;2023-02-22T03:19:57;34.80;;;12.27;;
72156;SDS011;60035;52.122;5.406;2023-02-22T03:22:30;37.63;;;12.98;;
72156;SDS011;60035;52.122;5.406;2023-02-22T03:28:00;33.78;;;12.23;;
72156;SDS011;60035;52.122;5.406;2023-02-22T03:30:35;35.80;;;12.05;;
72156;SDS011;60035;52.122;5.406;2023-02-22T03:33:22;33.50;;;11.95;;
72156;SDS011;60035;52.122;5.406;2023-02-22T03:36:00;37.88;;;12.00;;
72156;SDS011;60035;52.122;5.406;2023-02-22T03:38:31;34.90;;;12.10;;
72156;SDS011;60035;52.122;5.406;2023-02-22T03:41:01;36.95;;;13.02;;
72156;SDS011;60035;52.122;5.406;2023-02-22T03:43:35;35.80;;;12.48;;
72156;SDS011;60035;52.122;5.406;2023-02-22T03:46:25;35.70;;;12.38;;
72156;SDS011;60035;52.122;5.406;2023-02-22T03:51:25;38.58;;;13.55;;
72156;SDS011;60035;52.122;5.406;2023-02-22T03:53:52;35.25;;;12.77;;
72156;SDS011;60035;52.122;5.406;2023-02-22T03:56:27;37.50;;;13.27;;
72156;SDS011;60035;52.122;5.406;2023-02-22T03:59:06;39.90;;;13.73;;
72156;SDS011;60035;52.122;5.406;2023-02-22T04:01:34;38.90;;;14.45;;
72156;SDS011;60035;52.122;5.406;2023-02-22T04:04:01;37.53;;;13.60;;
72156;SDS011;60035;52.122;5.406;2023-02-22T04:06:28;39.83;;;13.48;;
72156;SDS011;60035;52.122;5.406;2023-02-22T04:08:54;37.28;;;13.70;;
72156;SDS011;60035;52.122;5.406;2023-02-22T04:11:21;38.20;;;14.02;;
72156;SDS011;60035;52.122;5.406;2023-02-22T04:13:48;36.88;;;13.27;;
72156;SDS011;60035;52.122;5.406;2023-02-22T04:16:15;37.88;;;14.00;;
72156;SDS011;60035;52.122;5.406;2023-02-22T04:18:41;41.03;;;13.52;;
72156;SDS011;60035;52.122;5.406;2023-02-22T04:21:08;39.42;;;14.10;;
72156;SDS011;60035;52.122;5.406;2023-02-22T04:23:34;42.20;;;14.60;;
72156;SDS011;60035;52.122;5.406;2023-02-22T04:26:01;41.60;;;13.98;;
72156;SDS011;60035;52.122;5.406;2023-02-22T04:28:28;40.35;;;12.82;;
72156;SDS011;60035;52.122;5.406;2023-02-22T04:30:55;38.15;;;14.65;;
72156;SDS011;60035;52.122;5.406;2023-02-22T04:33:21;40.88;;;14.13;;
72156;SDS011;60035;52.122;5.406;2023-02-22T04:35:48;37.72;;;13.00;;
72156;SDS011;60035;52.122;5.406;2023-02-22T04:38:14;43.42;;;14.50;;
72156;SDS011;60035;52.122;5.406;2023-02-22T04:40:40;38.58;;;13.65;;
72156;SDS011;60035;52.122;5.406;2023-02-22T04:43:07;37.80;;;12.73;;
72156;SDS011;60035;52.122;5.406;2023-02-22T04:45:34;42.75;;;13.80;;
72156;SDS011;60035;52.122;5.406;2023-02-22T04:48:01;40.03;;;13.85;;
72156;SDS011;60035;52.122;5.406;2023-02-22T04:50:27;38.50;;;13.85;;
72156;SDS011;60035;52.122;5.406;2023-02-22T04:52:54;39.20;;;14.02;;
72156;SDS011;60035;52.122;5.406;2023-02-22T04:55:21;39.75;;;12.25;;
72156;SDS011;60035;52.122;5.406;2023-02-22T04:57:47;39.05;;;13.55;;
72156;SDS011;60035;52.122;5.406;2023-02-22T05:00:15;37.47;;;12.93;;
72156;SDS011;60035;52.122;5.406;2023-02-22T05:02:43;41.63;;;12.52;;
72156;SDS011;60035;52.122;5.406;2023-02-22T05:05:12;42.33;;;14.35;;
72156;SDS011;60035;52.122;5.406;2023-02-22T05:07:42;42.67;;;14.02;;
72156;SDS011;60035;52.122;5.406;2023-02-22T05:10:10;36.25;;;13.30;;
72156;SDS011;60035;52.122;5.406;2023-02-22T05:12:37;39.08;;;13.65;;
72156;SDS011;60035;52.122;5.406;2023-02-22T05:15:04;41.83;;;13.90;;
72156;SDS011;60035;52.122;5.406;2023-02-22T05:17:31;38.25;;;12.82;;
72156;SDS011;60035;52.122;5.406;2023-02-22T05:19:58;43.50;;;14.57;;
72156;SDS011;60035;52.122;5.406;2023-02-22T05:22:24;42.35;;;13.68;;
72156;SDS011;60035;52.122;5.406;2023-02-22T05:24:51;44.10;;;13.60;;
72156;SDS011;60035;52.122;5.406;2023-02-22T05:27:17;41.85;;;14.43;;
72156;SDS011;60035;52.122;5.406;2023-02-22T05:29:44;43.80;;;14.25;;
72156;SDS011;60035;52.122;5.406;2023-02-22T05:32:11;40.40;;;12.23;;
72156;SDS011;60035;52.122;5.406;2023-02-22T05:34:37;43.45;;;13.95;;
72156;SDS011;60035;52.122;5.406;2023-02-22T05:37:04;45.83;;;14.40;;
72156;SDS011;60035;52.122;5.406;2023-02-22T05:39:31;45.83;;;14.68;;
72156;SDS011;60035;52.122;5.406;2023-02-22T05:41:58;49.35;;;14.82;;
72156;SDS011;60035;52.122;5.406;2023-02-22T05:44:24;52.05;;;15.75;;
72156;SDS011;60035;52.122;5.406;2023-02-22T05:46:51;44.85;;;13.40;;
72156;SDS011;60035;52.122;5.406;2023-02-22T05:49:17;43.30;;;15.02;;
72156;SDS011;60035;52.122;5.406;2023-02-22T05:51:44;48.70;;;15.60;;
72156;SDS011;60035;52.122;5.406;2023-02-22T05:54:10;47.40;;;15.10;;
72156;SDS011;60035;52.122;5.406;2023-02-22T05:56:36;47.75;;;14.85;;
72156;SDS011;60035;52.122;5.406;2023-02-22T05:59:03;54.85;;;14.70;;
72156;SDS011;60035;52.122;5.406;2023-02-22T06:01:29;51.78;;;15.80;;
72156;SDS011;60035;52.122;5.406;2023-02-22T06:03:56;50.90;;;15.70;;
72156;SDS011;60035;52.122;5.406;2023-02-22T06:06:22;49.30;;;15.05;;
72156;SDS011;60035;52.122;5.406;2023-02-22T06:08:49;52.55;;;14.93;;
72156;SDS011;60035;52.122;5.406;2023-02-22T06:11:15;55.03;;;16.08;;
72156;SDS011;60035;52.122;5.406;2023-02-22T06:13:47;57.20;;;15.80;;
72156;SDS011;60035;52.122;5.406;2023-02-22T06:16:14;61.72;;;17.02;;
72156;SDS011;60035;52.122;5.406;2023-02-22T06:18:41;58.40;;;16.40;;
72156;SDS011;60035;52.122;5.406;2023-02-22T06:21:07;62.63;;;17.80;;
72156;SDS011;60035;52.122;5.406;2023-02-22T06:23:34;60.92;;;17.10;;
72156;SDS011;60035;52.122;5.406;2023-02-22T06:26:00;55.92;;;15.98;;
72156;SDS011;60035;52.122;5.406;2023-02-22T06:28:27;59.17;;;15.50;;
72156;SDS011;60035;52.122;5.406;2023-02-22T06:30:53;53.38;;;17.02;;
72156;SDS011;60035;52.122;5.406;2023-02-22T06:33:19;53.25;;;16.08;;
72156;SDS011;60035;52.122;5.406;2023-02-22T06:35:46;59.80;;;16.08;;
72156;SDS011;60035;52.122;5.406;2023-02-22T06:38:19;52.53;;;14.77;;
72156;SDS011;60035;52.122;5.406;2023-02-22T06:40:47;52.20;;;16.77;;
72156;SDS011;60035;52.122;5.406;2023-02-22T06:43:13;55.70;;;17.33;;
72156;SDS011;60035;52.122;5.406;2023-02-22T06:45:40;50.88;;;15.13;;
72156;SDS011;60035;52.122;5.406;2023-02-22T06:48:06;58.70;;;16.52;;
72156;SDS011;60035;52.122;5.406;2023-02-22T06:50:34;56.67;;;16.38;;
72156;SDS011;60035;52.122;5.406;2023-02-22T06:53:01;55.90;;;16.27;;
72156;SDS011;60035;52.122;5.406;2023-02-22T06:55:29;51.25;;;16.35;;
72156;SDS011;60035;52.122;5.406;2023-02-22T06:57:57;53.30;;;15.90;;
72156;SDS011;60035;52.122;5.406;2023-02-22T07:00:25;57.67;;;17.10;;
72156;SDS011;60035;52.122;5.406;2023-02-22T07:02:52;55.03;;;17.15;;
72156;SDS011;60035;52.122;5.406;2023-02-22T07:05:20;50.08;;;14.93;;
72156;SDS011;60035;52.122;5.406;2023-02-22T07:07:48;55.13;;;16.92;;
72156;SDS011;60035;52.122;5.406;2023-02-22T07:12:47;54.63;;;16.30;;
72156;SDS011;60035;52.122;5.406;2023-02-22T07:15:15;55.92;;;14.93;;
72156;SDS011;60035;52.122;5.406;2023-02-22T07:17:43;57.78;;;16.45;;
72156;SDS011;60035;52.122;5.406;2023-02-22T07:20:09;57.58;;;15.80;;
72156;SDS011;60035;52.122;5.406;2023-02-22T07:22:37;61.03;;;16.60;;
72156;SDS011;60035;52.122;5.406;2023-02-22T07:25:07;48.20;;;16.02;;
72156;SDS011;60035;52.122;5.406;2023-02-22T07:27:37;63.05;;;19.15;;
72156;SDS011;60035;52.122;5.406;2023-02-22T07:30:05;53.10;;;15.75;;
72156;SDS011;60035;52.122;5.406;2023-02-22T07:32:44;54.42;;;15.38;;
72156;SDS011;60035;52.122;5.406;2023-02-22T07:35:15;58.15;;;17.83;;
72156;SDS011;60035;52.122;5.406;2023-02-22T07:37:43;49.33;;;15.07;;
72156;SDS011;60035;52.122;5.406;2023-02-22T07:40:10;53.53;;;14.98;;
72156;SDS011;60035;52.122;5.406;2023-02-22T07:42:53;51.38;;;15.05;;
72156;SDS011;60035;52.122;5.406;2023-02-22T07:45:28;49.38;;;14.93;;
72156;SDS011;60035;52.122;5.406;2023-02-22T07:47:56;45.70;;;16.50;;
72156;SDS011;60035;52.122;5.406;2023-02-22T07:50:26;47.42;;;15.32;;
72156;SDS011;60035;52.122;5.406;2023-02-22T07:52:59;53.63;;;15.27;;
72156;SDS011;60035;52.122;5.406;2023-02-22T07:55:27;51.47;;;16.83;;
72156;SDS011;60035;52.122;5.406;2023-02-22T07:57:56;54.00;;;15.77;;
72156;SDS011;60035;52.122;5.406;2023-02-22T08:00:25;54.08;;;16.90;;
72156;SDS011;60035;52.122;5.406;2023-02-22T08:02:58;48.15;;;15.32;;
72156;SDS011;60035;52.122;5.406;2023-02-22T08:05:27;50.17;;;15.88;;
72156;SDS011;60035;52.122;5.406;2023-02-22T08:07:55;52.67;;;15.45;;
72156;SDS011;60035;52.122;5.406;2023-02-22T08:10:22;45.60;;;15.23;;
72156;SDS011;60035;52.122;5.406;2023-02-22T08:12:51;56.45;;;17.25;;
72156;SDS011;60035;52.122;5.406;2023-02-22T08:15:19;52.60;;;16.38;;
72156;SDS011;60035;52.122;5.406;2023-02-22T08:17:46;52.17;;;16.10;;
72156;SDS011;60035;52.122;5.406;2023-02-22T08:20:12;51.85;;;16.73;;
72156;SDS011;60035;52.122;5.406;2023-02-22T08:22:41;53.38;;;17.67;;
72156;SDS011;60035;52.122;5.406;2023-02-22T08:25:09;47.42;;;15.48;;
72156;SDS011;60035;52.122;5.406;2023-02-22T08:27:36;41.85;;;15.15;;
72156;SDS011;60035;52.122;5.406;2023-02-22T08:30:03;40.72;;;14.82;;
72156;SDS011;60035;52.122;5.406;2023-02-22T08:32:30;39.97;;;13.07;;
72156;SDS011;60035;52.122;5.406;2023-02-22T08:34:56;39.58;;;13.52;;
72156;SDS011;60035;52.122;5.406;2023-02-22T08:37:23;40.75;;;13.18;;
72156;SDS011;60035;52.122;5.406;2023-02-22T08:39:49;41.22;;;13.10;;
72156;SDS011;60035;52.122;5.406;2023-02-22T08:42:18;39.42;;;14.02;;
72156;SDS011;60035;52.122;5.406;2023-02-22T08:44:44;32.65;;;11.95;;
72156;SDS011;60035;52.122;5.406;2023-02-22T08:47:13;36.53;;;12.80;;
72156;SDS011;60035;52.122;5.406;2023-02-22T08:49:39;34.58;;;13.00;;
72156;SDS011;60035;52.122;5.406;2023-02-22T08:52:07;36.97;;;13.27;;
72156;SDS011;60035;52.122;5.406;2023-02-22T08:54:34;36.13;;;12.80;;
72156;SDS011;60035;52.122;5.406;2023-02-22T08:57:00;33.13;;;13.05;;
72156;SDS011;60035;52.122;5.406;2023-02-22T08:59:27;34.42;;;12.95;;
72156;SDS011;60035;52.122;5.406;2023-02-22T09:01:53;40.80;;;13.05;;
72156;SDS011;60035;52.122;5.406;2023-02-22T09:04:20;34.53;;;13.43;;
72156;SDS011;60035;52.122;5.406;2023-02-22T09:06:47;38.63;;;13.07;;
72156;SDS011;60035;52.122;5.406;2023-02-22T09:09:17;34.47;;;13.45;;
72156;SDS011;60035;52.122;5.406;2023-02-22T09:11:49;36.67;;;13.07;;
72156;SDS011;60035;52.122;5.406;2023-02-22T09:14:18;34.92;;;13.32;;
72156;SDS011;60035;52.122;5.406;2023-02-22T09:16:44;34.58;;;13.25;;
72156;SDS011;60035;52.122;5.406;2023-02-22T09:19:11;33.10;;;12.27;;
72156;SDS011;60035;52.122;5.406;2023-02-22T09:21:37;37.13;;;13.35;;
72156;SDS011;60035;52.122;5.406;2023-02-22T09:24:06;35.63;;;13.02;;
72156;SDS011;60035;52.122;5.406;2023-02-22T09:26:38;37.92;;;13.18;;
72156;SDS011;60035;52.122;5.406;2023-02-22T09:29:11;37.17;;;14.20;;
72156;SDS011;60035;52.122;5.406;2023-02-22T09:31:38;33.97;;;12.98;;
72156;SDS011;60035;52.122;5.406;2023-02-22T09:34:08;37.65;;;13.35;;
72156;SDS011;60035;52.122;5.406;2023-02-22T09:36:42;37.65;;;13.82;;
72156;SDS011;60035;52.122;5.406;2023-02-22T09:39:09;32.53;;;11.95;;
72156;SDS011;60035;52.122;5.406;2023-02-22T09:44:17;34.90;;;13.55;;
72156;SDS011;60035;52.122;5.406;2023-02-22T09:46:51;32.63;;;12.05;;
72156;SDS011;60035;52.122;5.406;2023-02-22T09:49:29;35.65;;;13.18;;
72156;SDS011;60035;52.122;5.406;2023-02-22T09:52:07;33.42;;;13.32;;
72156;SDS011;60035;52.122;5.406;2023-02-22T09:55:07;38.63;;;13.85;;
72156;SDS011;60035;52.122;5.406;2023-02-22T09:57:54;35.53;;;13.07;;
72156;SDS011;60035;52.122;5.406;2023-02-22T10:00:23;32.28;;;12.27;;
72156;SDS011;60035;52.122;5.406;2023-02-22T10:03:00;32.67;;;12.23;;
72156;SDS011;60035;52.122;5.406;2023-02-22T10:05:41;35.25;;;12.60;;
72156;SDS011;60035;52.122;5.406;2023-02-22T10:08:12;36.65;;;13.95;;
72156;SDS011;60035;52.122;5.406;2023-02-22T10:10:41;40.13;;;17.45;;
72156;SDS011;60035;52.122;5.406;2023-02-22T10:16:05;37.40;;;16.30;;
72156;SDS011;60035;52.122;5.406;2023-02-22T10:27:32;33.85;;;14.95;;
72156;SDS011;60035;52.122;5.406;2023-02-22T10:30:23;32.63;;;12.32;;
72156;SDS011;60035;52.122;5.406;2023-02-22T10:32:54;33.17;;;13.82;;
72156;SDS011;60035;52.122;5.406;2023-02-22T10:35:27;34.80;;;12.02;;
72156;SDS011;60035;52.122;5.406;2023-02-22T10:40:47;31.88;;;12.68;;
72156;SDS011;60035;52.122;5.406;2023-02-22T10:43:19;31.15;;;12.70;;
72156;SDS011;60035;52.122;5.406;2023-02-22T10:45:46;32.80;;;13.23;;
72156;SDS011;60035;52.122;5.406;2023-02-22T10:48:14;30.98;;;12.02;;
72156;SDS011;60035;52.122;5.406;2023-02-22T10:50:44;33.45;;;12.43;;
72156;SDS011;60035;52.122;5.406;2023-02-22T10:53:11;30.23;;;12.07;;
72156;SDS011;60035;52.122;5.406;2023-02-22T10:58:49;34.67;;;13.65;;
72156;SDS011;60035;52.122;5.406;2023-02-22T11:01:34;32.03;;;12.98;;
72156;SDS011;60035;52.122;5.406;2023-02-22T11:06:35;32.80;;;13.02;;
72156;SDS011;60035;52.122;5.406;2023-02-22T11:09:05;29.58;;;12.10;;
72156;SDS011;60035;52.122;5.406;2023-02-22T11:11:37;31.23;;;12.40;;
72156;SDS011;60035;52.122;5.406;2023-02-22T11:14:06;30.30;;;12.93;;
72156;SDS011;60035;52.122;5.406;2023-02-22T11:19:32;30.17;;;11.40;;
72156;SDS011;60035;52.122;5.406;2023-02-22T11:24:31;32.42;;;12.55;;
72156;SDS011;60035;52.122;5.406;2023-02-22T11:27:48;29.52;;;11.77;;
72156;SDS011;60035;52.122;5.406;2023-02-22T11:30:10;34.83;;;12.90;;
72156;SDS011;60035;52.122;5.406;2023-02-22T11:32:49;33.95;;;13.40;;
72156;SDS011;60035;52.122;5.406;2023-02-22T11:38:08;34.22;;;13.30;;
72156;SDS011;60035;52.122;5.406;2023-02-22T11:40:43;36.88;;;14.18;;
72156;SDS011;60035;52.122;5.406;2023-02-22T11:43:16;34.20;;;12.73;;
72156;SDS011;60035;52.122;5.406;2023-02-22T11:46:03;36.13;;;12.80;;
72156;SDS011;60035;52.122;5.406;2023-02-22T11:48:40;32.42;;;12.63;;
72156;SDS011;60035;52.122;5.406;2023-02-22T11:51:13;35.30;;;13.02;;
72156;SDS011;60035;52.122;5.406;2023-02-22T11:56:41;36.58;;;13.18;;
72156;SDS011;60035;52.122;5.406;2023-02-22T11:59:32;32.78;;;12.52;;
72156;SDS011;60035;52.122;5.406;2023-02-22T12:02:05;30.98;;;11.50;;
72156;SDS011;60035;52.122;5.406;2023-02-22T12:07:56;33.17;;;12.35;;
72156;SDS011;60035;52.122;5.406;2023-02-22T12:10:47;36.10;;;12.60;;
72156;SDS011;60035;52.122;5.406;2023-02-22T12:21:57;32.15;;;12.05;;
72156;SDS011;60035;52.122;5.406;2023-02-22T12:24:29;36.90;;;13.13;;
72156;SDS011;60035;52.122;5.406;2023-02-22T12:27:10;33.22;;;12.15;;
72156;SDS011;60035;52.122;5.406;2023-02-22T12:29:45;33.50;;;13.35;;
72156;SDS011;60035;52.122;5.406;2023-02-22T12:32:18;33.30;;;12.20;;
72156;SDS011;60035;52.122;5.406;2023-02-22T12:35:19;34.95;;;12.63;;
72156;SDS011;60035;52.122;5.406;2023-02-22T12:37:58;36.33;;;14.32;;
72156;SDS011;60035;52.122;5.406;2023-02-22T12:40:36;33.75;;;12.23;;
72156;SDS011;60035;52.122;5.406;2023-02-22T12:46:01;35.33;;;12.98;;
72156;SDS011;60035;52.122;5.406;2023-02-22T12:51:10;33.75;;;12.82;;
72156;SDS011;60035;52.122;5.406;2023-02-22T12:53:42;33.83;;;12.55;;
72156;SDS011;60035;52.122;5.406;2023-02-22T12:56:24;30.17;;;11.45;;
72156;SDS011;60035;52.122;5.406;2023-02-22T12:58:58;32.90;;;13.07;;
72156;SDS011;60035;52.122;5.406;2023-02-22T13:01:35;30.48;;;11.75;;
72156;SDS011;60035;52.122;5.406;2023-02-22T13:04:05;32.90;;;12.50;;
72156;SDS011;60035;52.122;5.406;2023-02-22T13:07:00;29.45;;;13.18;;
72156;SDS011;60035;52.122;5.406;2023-02-22T13:10:10;31.67;;;13.20;;
72156;SDS011;60035;52.122;5.406;2023-02-22T13:18:12;31.85;;;13.00;;
72156;SDS011;60035;52.122;5.406;2023-02-22T13:20:50;30.95;;;13.25;;
72156;SDS011;60035;52.122;5.406;2023-02-22T13:23:30;31.80;;;13.00;;
72156;SDS011;60035;52.122;5.406;2023-02-22T13:29:15;31.70;;;12.75;;
72156;SDS011;60035;52.122;5.406;2023-02-22T13:32:01;32.03;;;12.63;;
72156;SDS011;60035;52.122;5.406;2023-02-22T13:48:58;29.42;;;11.02;;
72156;SDS011;60035;52.122;5.406;2023-02-22T13:56:59;27.10;;;11.80;;
72156;SDS011;60035;52.122;5.406;2023-02-22T13:59:34;29.65;;;12.48;;
72156;SDS011;60035;52.122;5.406;2023-02-22T14:02:03;25.17;;;12.32;;
72156;SDS011;60035;52.122;5.406;2023-02-22T14:04:41;29.35;;;12.70;;
72156;SDS011;60035;52.122;5.406;2023-02-22T14:20:23;28.83;;;12.57;;
72156;SDS011;60035;52.122;5.406;2023-02-22T14:22:57;29.80;;;12.48;;
72156;SDS011;60035;52.122;5.406;2023-02-22T14:25:49;31.17;;;13.07;;
72156;SDS011;60035;52.122;5.406;2023-02-22T14:31:12;40.13;;;17.95;;
72156;SDS011;60035;52.122;5.406;2023-02-22T14:34:01;36.03;;;15.68;;
72156;SDS011;60035;52.122;5.406;2023-02-22T14:37:01;31.08;;;14.07;;
72156;SDS011;60035;52.122;5.406;2023-02-22T14:39:43;25.88;;;12.65;;
72156;SDS011;60035;52.122;5.406;2023-02-22T14:42:17;26.33;;;12.38;;
72156;SDS011;60035;52.122;5.406;2023-02-22T14:45:00;26.75;;;12.18;;
72156;SDS011;60035;52.122;5.406;2023-02-22T14:50:36;27.02;;;12.02;;
72156;SDS011;60035;52.122;5.406;2023-02-22T14:53:35;25.60;;;12.75;;
72156;SDS011;60035;52.122;5.406;2023-02-22T14:56:20;22.63;;;11.57;;
72156;SDS011;60035;52.122;5.406;2023-02-22T14:58:57;27.20;;;12.48;;
72156;SDS011;60035;52.122;5.406;2023-02-22T15:01:34;25.23;;;11.85;;
72156;SDS011;60035;52.122;5.406;2023-02-22T15:06:49;23.50;;;11.40;;
72156;SDS011;60035;52.122;5.406;2023-02-22T15:09:17;25.25;;;12.25;;
72156;SDS011;60035;52.122;5.406;2023-02-22T15:11:56;24.30;;;11.25;;
72156;SDS011;60035;52.122;5.406;2023-02-22T15:14:38;24.27;;;10.52;;
72156;SDS011;60035;52.122;5.406;2023-02-22T15:17:08;28.52;;;12.25;;
72156;SDS011;60035;52.122;5.406;2023-02-22T15:19:39;28.25;;;13.40;;
72156;SDS011;60035;52.122;5.406;2023-02-22T15:22:17;25.70;;;11.60;;
72156;SDS011;60035;52.122;5.406;2023-02-22T15:24:57;23.27;;;11.18;;
72156;SDS011;60035;52.122;5.406;2023-02-22T15:27:26;27.08;;;12.30;;
72156;SDS011;60035;52.122;5.406;2023-02-22T15:29:57;25.33;;;11.68;;
72156;SDS011;60035;52.122;5.406;2023-02-22T15:37:42;24.17;;;10.68;;
72156;SDS011;60035;52.122;5.406;2023-02-22T15:40:16;23.42;;;10.77;;
72156;SDS011;60035;52.122;5.406;2023-02-22T15:42:47;25.52;;;12.35;;
72156;SDS011;60035;52.122;5.406;2023-02-22T15:45:15;25.50;;;12.88;;
72156;SDS011;60035;52.122;5.406;2023-02-22T15:47:45;27.40;;;12.55;;
72156;SDS011;60035;52.122;5.406;2023-02-22T15:55:30;25.83;;;12.75;;
72156;SDS011;60035;52.122;5.406;2023-02-22T15:58:00;26.23;;;11.32;;
72156;SDS011;60035;52.122;5.406;2023-02-22T16:00:34;25.13;;;11.68;;
72156;SDS011;60035;52.122;5.406;2023-02-22T16:03:07;24.77;;;11.43;;
72156;SDS011;60035;52.122;5.406;2023-02-22T16:05:39;25.38;;;12.80;;
72156;SDS011;60035;52.122;5.406;2023-02-22T16:10:42;25.17;;;12.57;;
72156;SDS011;60035;52.122;5.406;2023-02-22T16:13:32;23.45;;;12.18;;
72156;SDS011;60035;52.122;5.406;2023-02-22T16:16:01;26.95;;;13.48;;
72156;SDS011;60035;52.122;5.406;2023-02-22T16:18:47;25.05;;;12.00;;
72156;SDS011;60035;52.122;5.406;2023-02-22T16:21:16;23.85;;;12.00;;
72156;SDS011;60035;52.122;5.406;2023-02-22T16:23:50;25.75;;;13.30;;
72156;SDS011;60035;52.122;5.406;2023-02-22T16:26:31;25.52;;;13.50;;
72156;SDS011;60035;52.122;5.406;2023-02-22T16:29:00;27.63;;;13.60;;
72156;SDS011;60035;52.122;5.406;2023-02-22T16:31:33;27.42;;;13.98;;
72156;SDS011;60035;52.122;5.406;2023-02-22T16:34:03;28.35;;;13.68;;
72156;SDS011;60035;52.122;5.406;2023-02-22T16:36:46;26.70;;;14.50;;
72156;SDS011;60035;52.122;5.406;2023-02-22T16:41:55;28.27;;;14.93;;
72156;SDS011;60035;52.122;5.406;2023-02-22T16:44:30;25.70;;;14.25;;
72156;SDS011;60035;52.122;5.406;2023-02-22T16:46:58;27.90;;;14.23;;
72156;SDS011;60035;52.122;5.406;2023-02-22T16:49:25;30.02;;;15.00;;
72156;SDS011;60035;52.122;5.406;2023-02-22T16:51:52;29.80;;;14.93;;
72156;SDS011;60035;52.122;5.406;2023-02-22T16:54:25;27.50;;;14.05;;
72156;SDS011;60035;52.122;5.406;2023-02-22T16:56:55;29.50;;;14.60;;
72156;SDS011;60035;52.122;5.406;2023-02-22T16:59:27;29.38;;;14.98;;
72156;SDS011;60035;52.122;5.406;2023-02-22T17:01:56;29.35;;;14.50;;
72156;SDS011;60035;52.122;5.406;2023-02-22T17:04:24;30.52;;;14.73;;
72156;SDS011;60035;52.122;5.406;2023-02-22T17:06:51;27.55;;;15.00;;
72156;SDS011;60035;52.122;5.406;2023-02-22T17:09:18;29.27;;;15.27;;
72156;SDS011;60035;52.122;5.406;2023-02-22T17:11:48;29.63;;;15.75;;
72156;SDS011;60035;52.122;5.406;2023-02-22T17:14:17;30.73;;;15.07;;
72156;SDS011;60035;52.122;5.406;2023-02-22T17:16:51;31.45;;;15.13;;
72156;SDS011;60035;52.122;5.406;2023-02-22T17:19:19;30.13;;;15.45;;
72156;SDS011;60035;52.122;5.406;2023-02-22T17:21:47;33.95;;;17.27;;